Time;durP1;ratioP1;P1;durP2;ratioP2;P2;SDS_P1;SDS_P2;PMS_P1;PMS_P2;Temp;Humidity;BMP_temperature;BMP_pressure;BME280_temperature;BME280_humidity;BME280_pressure;Samples;Min_cycle;Max_cycle;Signal;HPM_P1;HPM_P2
2022/03/29 00:00:38;;;;;;;9.40;3.55;;;19.90;51.70;;;;;;5082958;28;20093;-75
2022/03/29 00:03:07;;;;;;;4.05;3.10;;;19.90;51.70;;;;;;5115574;28;20056;-75
2022/03/29 00:05:35;;;;;;;4.60;3.55;;;19.80;51.70;;;;;;5081336;28;20568;-75
2022/03/29 00:08:01;;;;;;;3.78;3.30;;;19.90;51.70;;;;;;5085412;28;20073;-75
2022/03/29 00:10:26;;;;;;;4.20;3.47;;;19.80;51.60;;;;;;5081945;28;20165;-75
2022/03/29 00:12:53;;;;;;;5.03;3.47;;;19.80;51.70;;;;;;5100829;28;20131;-75
2022/03/29 00:15:21;;;;;;;4.90;3.47;;;19.80;51.60;;;;;;5082253;28;20048;-75
2022/03/29 00:17:47;;;;;;;4.60;3.47;;;19.80;51.60;;;;;;5116576;28;20055;-75
2022/03/29 00:20:17;;;;;;;4.00;3.33;;;19.80;51.60;;;;;;5098696;28;20040;-75
2022/03/29 00:22:43;;;;;;;4.18;3.78;;;19.80;51.50;;;;;;5116441;28;20047;-76
2022/03/29 00:25:09;;;;;;;4.07;3.30;;;19.80;51.50;;;;;;5079407;28;20146;-75
2022/03/29 00:27:35;;;;;;;5.20;3.97;;;19.80;51.50;;;;;;5081966;28;20074;-76
2022/03/29 00:30:02;;;;;;;4.32;3.42;;;19.80;51.50;;;;;;5062589;28;20057;-76
2022/03/29 00:32:28;;;;;;;3.78;3.30;;;19.80;51.50;;;;;;5081662;28;20063;-75
2022/03/29 00:34:54;;;;;;;4.28;3.55;;;19.80;51.40;;;;;;5065372;28;20036;-76
2022/03/29 00:37:19;;;;;;;4.15;3.40;;;19.80;51.40;;;;;;5083027;28;20131;-76
2022/03/29 00:39:45;;;;;;;4.15;3.40;;;19.80;51.40;;;;;;5088973;28;20074;-75
2022/03/29 00:42:10;;;;;;;6.65;4.07;;;19.80;51.40;;;;;;5116037;28;20032;-75
2022/03/29 00:44:38;;;;;;;4.18;3.63;;;19.70;51.30;;;;;;5056712;28;20155;-76
2022/03/29 00:47:04;;;;;;;4.17;3.60;;;19.80;51.40;;;;;;5082267;28;20058;-76
2022/03/29 00:49:30;;;;;;;4.43;3.58;;;19.70;51.40;;;;;;5080027;28;20032;-76
2022/03/29 00:51:59;;;;;;;3.97;3.25;;;19.70;51.30;;;;;;5093241;28;20483;-75
2022/03/29 00:54:25;;;;;;;5.15;3.20;;;19.70;51.50;;;;;;5086128;28;20112;-75
2022/03/29 00:56:51;;;;;;;4.25;3.78;;;19.70;51.30;;;;;;5085067;28;20127;-75
2022/03/29 00:59:20;;;;;;;5.00;3.45;;;19.60;51.30;;;;;;5085955;28;20653;-76
2022/03/29 01:01:46;;;;;;;4.28;3.72;;;19.70;51.30;;;;;;5085743;28;20048;-75
2022/03/29 01:04:11;;;;;;;4.38;3.47;;;19.70;51.30;;;;;;5102773;28;20051;-75
2022/03/29 01:06:38;;;;;;;3.90;3.50;;;19.70;51.30;;;;;;5086734;28;20415;-76
2022/03/29 01:09:04;;;;;;;4.78;3.22;;;19.70;51.20;;;;;;5087664;28;20040;-75
2022/03/29 01:11:31;;;;;;;6.10;3.95;;;19.70;51.20;;;;;;5085335;28;20597;-75
2022/03/29 01:13:56;;;;;;;4.35;3.55;;;19.70;51.20;;;;;;5102211;28;20093;-75
2022/03/29 01:19:11;;;;;;;3.80;3.40;;;19.60;51.10;;;;;;5085151;28;20048;-75
2022/03/29 01:21:39;;;;;;;3.92;3.53;;;19.60;51.10;;;;;;5086019;28;20139;-75
2022/03/29 01:24:05;;;;;;;4.05;3.55;;;19.70;51.20;;;;;;5083147;28;20124;-76
2022/03/29 01:26:31;;;;;;;3.65;3.33;;;19.60;51.10;;;;;;5085213;28;20440;-75
2022/03/29 01:28:58;;;;;;;3.92;3.53;;;19.60;51.10;;;;;;5084630;28;20052;-75
2022/03/29 01:31:25;;;;;;;5.00;3.42;;;19.60;51.10;;;;;;5067712;28;20101;-75
2022/03/29 01:33:51;;;;;;;4.57;3.60;;;19.70;51.20;;;;;;5086138;28;20040;-75
2022/03/29 01:36:16;;;;;;;5.30;3.47;;;19.60;51.10;;;;;;5085731;28;20036;-75
2022/03/29 01:38:42;;;;;;;4.10;3.55;;;19.70;51.10;;;;;;5101738;28;20113;-75
2022/03/29 01:41:09;;;;;;;4.20;3.58;;;19.60;51.00;;;;;;5072426;28;20044;-76
2022/03/29 01:43:34;;;;;;;4.05;3.40;;;19.60;51.10;;;;;;5085284;28;20131;-76
2022/03/29 01:46:00;;;;;;;3.80;3.30;;;19.60;51.00;;;;;;5084149;28;20119;-75
2022/03/29 01:48:27;;;;;;;4.57;3.65;;;19.60;51.00;;;;;;5081731;28;20117;-76
2022/03/29 01:50:52;;;;;;;4.32;3.72;;;19.60;51.10;;;;;;5083311;28;20052;-76
2022/03/29 01:53:23;;;;;;;4.40;3.90;;;19.60;51.00;;;;;;5085459;28;20125;-75
2022/03/29 01:55:48;;;;;;;3.95;3.47;;;19.60;51.00;;;;;;5084635;28;20047;-75
2022/03/29 01:58:15;;;;;;;3.80;3.35;;;19.60;51.00;;;;;;5091485;28;20048;-75
2022/03/29 02:00:41;;;;;;;5.68;3.70;;;19.60;51.00;;;;;;5118305;27;20127;-75
2022/03/29 02:03:09;;;;;;;3.70;3.28;;;19.60;51.00;;;;;;5084279;28;20043;-76
2022/03/29 02:05:35;;;;;;;4.38;3.45;;;19.60;51.00;;;;;;5085015;28;20102;-75
2022/03/29 02:08:01;;;;;;;4.68;3.50;;;19.60;51.00;;;;;;5085676;28;20040;-76
2022/03/29 02:10:27;;;;;;;5.43;3.80;;;19.60;51.00;;;;;;5114960;27;20767;-75
2022/03/29 02:12:53;;;;;;;6.90;3.47;;;19.60;50.90;;;;;;5085176;28;20491;-75
2022/03/29 02:15:19;;;;;;;3.92;3.47;;;19.60;50.90;;;;;;5083995;28;20044;-75
2022/03/29 02:17:48;;;;;;;4.00;3.60;;;19.60;50.90;;;;;;5085138;28;20066;-76
2022/03/29 02:20:14;;;;;;;4.78;3.50;;;19.60;50.90;;;;;;5081878;28;20029;-75
2022/03/29 02:22:41;;;;;;;3.95;3.47;;;19.60;51.70;;;;;;5086357;28;20100;-76
2022/03/29 02:25:07;;;;;;;4.55;3.70;;;19.60;50.90;;;;;;5083269;28;20502;-76
2022/03/29 02:27:32;;;;;;;4.18;3.65;;;19.60;50.90;;;;;;5100367;28;20044;-75
2022/03/29 02:29:58;;;;;;;4.80;3.50;;;19.60;50.80;;;;;;5082683;28;20380;-75
2022/03/29 02:32:23;;;;;;;4.22;3.53;;;19.60;50.80;;;;;;5085354;28;20420;-76
2022/03/29 02:34:49;;;;;;;4.00;3.30;;;19.60;50.80;;;;;;5084545;28;20123;-76
2022/03/29 02:37:14;;;;;;;4.45;3.60;;;19.60;50.80;;;;;;5083440;28;20120;-75
2022/03/29 02:39:40;;;;;;;4.53;4.00;;;19.60;50.80;;;;;;5117998;27;20058;-75
2022/03/29 02:42:07;;;;;;;4.38;3.63;;;19.70;50.80;;;;;;5099451;28;20036;-75
2022/03/29 02:44:33;;;;;;;5.00;3.80;;;19.60;50.70;;;;;;5083691;28;20123;-76
2022/03/29 02:46:59;;;;;;;5.38;3.83;;;19.60;51.10;;;;;;5084520;28;20072;-76
2022/03/29 02:49:25;;;;;;;4.18;3.60;;;19.60;50.70;;;;;;5081748;28;20129;-76
2022/03/29 02:51:51;;;;;;;4.20;3.50;;;19.60;50.70;;;;;;5084263;28;20044;-75
2022/03/29 02:54:17;;;;;;;5.25;3.83;;;19.60;50.70;;;;;;5084116;28;20082;-75
2022/03/29 02:56:43;;;;;;;4.88;3.90;;;19.70;50.70;;;;;;5083857;28;20032;-75
2022/03/29 02:59:09;;;;;;;5.22;4.20;;;19.60;50.60;;;;;;5078984;28;20978;-75
2022/03/29 03:01:35;;;;;;;5.10;3.92;;;19.60;50.60;;;;;;5082031;28;20499;-75
2022/03/29 03:04:00;;;;;;;6.57;3.95;;;19.60;50.60;;;;;;5085150;28;20040;-75
2022/03/29 03:06:26;;;;;;;4.10;3.55;;;19.60;50.60;;;;;;5083357;28;20060;-75
2022/03/29 03:08:52;;;;;;;4.90;3.60;;;19.60;50.60;;;;;;5099536;28;20082;-75
2022/03/29 03:11:18;;;;;;;4.50;3.70;;;19.60;50.60;;;;;;5082416;28;20122;-76
2022/03/29 03:13:43;;;;;;;3.90;3.30;;;19.60;50.60;;;;;;5117203;27;20036;-75
2022/03/29 03:16:09;;;;;;;5.03;3.70;;;19.60;50.50;;;;;;5114388;27;20055;-75
2022/03/29 03:18:34;;;;;;;5.05;3.45;;;19.60;50.50;;;;;;5083110;28;20052;-75
2022/03/29 03:21:00;;;;;;;4.78;3.70;;;19.60;50.50;;;;;;5081925;28;20044;-75
2022/03/29 03:23:26;;;;;;;4.88;3.97;;;19.70;50.60;;;;;;5084012;28;20072;-75
2022/03/29 03:25:51;;;;;;;5.15;3.63;;;19.70;50.50;;;;;;5083354;28;20054;-76
2022/03/29 03:28:17;;;;;;;4.63;3.50;;;19.70;50.50;;;;;;5085053;28;20086;-75
2022/03/29 03:30:43;;;;;;;5.43;3.75;;;19.70;50.50;;;;;;5085406;28;20051;-76
2022/03/29 03:33:08;;;;;;;4.55;3.60;;;19.60;50.40;;;;;;5082265;28;20773;-76
2022/03/29 03:35:34;;;;;;;5.00;3.83;;;19.60;50.40;;;;;;5084914;28;20059;-76
2022/03/29 03:38:00;;;;;;;4.88;3.78;;;19.60;50.40;;;;;;5095541;28;20047;-75
2022/03/29 03:40:25;;;;;;;4.18;3.40;;;19.60;50.40;;;;;;5083850;28;20585;-75
2022/03/29 03:42:51;;;;;;;5.53;3.80;;;19.70;50.50;;;;;;5083652;28;20052;-76
2022/03/29 03:45:17;;;;;;;4.50;3.60;;;19.60;50.40;;;;;;5082431;28;20140;-76
2022/03/29 03:47:42;;;;;;;4.28;3.50;;;19.60;50.40;;;;;;5083061;28;20205;-75
2022/03/29 03:50:09;;;;;;;5.00;3.80;;;19.70;50.40;;;;;;5113397;27;20024;-76
2022/03/29 03:52:35;;;;;;;4.65;3.70;;;19.60;50.40;;;;;;5083684;28;20403;-76
2022/03/29 03:55:01;;;;;;;6.53;3.72;;;19.60;50.30;;;;;;5089312;28;20044;-76
2022/03/29 03:57:26;;;;;;;5.93;4.00;;;19.70;50.40;;;;;;5100116;28;20051;-75
2022/03/29 03:59:55;;;;;;;5.78;4.18;;;19.60;50.30;;;;;;5082896;28;20043;-75
2022/03/29 04:02:20;;;;;;;;;;;19.60;50.30;;;;;;5084545;28;20032;-76
2022/03/29 04:04:46;;;;;;;4.60;3.42;;;19.60;50.30;;;;;;5116477;27;19924;-76
2022/03/29 04:07:11;;;;;;;5.47;3.90;;;19.60;50.40;;;;;;5084075;28;20131;-75
2022/03/29 04:09:38;;;;;;;3.95;3.55;;;19.60;50.30;;;;;;5082197;28;20105;-75
2022/03/29 04:12:05;;;;;;;4.97;3.70;;;19.60;50.30;;;;;;5081736;28;20711;-75
2022/03/29 04:14:30;;;;;;;4.75;3.83;;;19.60;50.30;;;;;;5080375;28;20044;-75
2022/03/29 04:16:56;;;;;;;5.97;4.45;;;19.60;50.30;;;;;;5079030;28;20024;-76
2022/03/29 04:19:22;;;;;;;4.57;3.95;;;19.60;50.30;;;;;;5081956;28;20055;-75
2022/03/29 04:21:47;;;;;;;4.13;3.72;;;19.60;50.30;;;;;;5083897;28;20538;-76
2022/03/29 04:24:13;;;;;;;5.82;3.90;;;19.60;50.30;;;;;;5083118;28;20044;-76
2022/03/29 04:26:39;;;;;;;5.18;3.95;;;19.60;50.30;;;;;;5099937;28;20044;-76
2022/03/29 04:29:05;;;;;;;5.85;4.05;;;19.60;50.30;;;;;;5087501;28;20339;-75
2022/03/29 04:31:31;;;;;;;4.60;3.97;;;19.60;50.30;;;;;;5087059;28;20047;-75
2022/03/29 04:34:00;;;;;;;4.60;3.85;;;19.60;50.20;;;;;;5086095;28;20040;-75
2022/03/29 04:36:29;;;;;;;4.28;3.85;;;19.60;50.30;;;;;;5087285;28;20076;-76
2022/03/29 04:38:57;;;;;;;5.28;3.90;;;19.50;50.20;;;;;;5085752;28;20032;-75
2022/03/29 04:41:26;;;;;;;5.78;4.22;;;19.60;50.30;;;;;;5094365;28;20599;-75
2022/03/29 04:43:51;;;;;;;4.30;3.70;;;19.60;50.30;;;;;;5102872;28;20040;-76
2022/03/29 04:46:17;;;;;;;6.45;4.00;;;19.60;50.20;;;;;;5086042;28;20067;-75
2022/03/29 04:48:43;;;;;;;4.43;3.70;;;19.60;50.20;;;;;;5086053;28;20055;-75
2022/03/29 04:51:09;;;;;;;5.88;4.22;;;19.60;50.30;;;;;;5084285;28;20036;-76
2022/03/29 04:53:34;;;;;;;4.88;3.35;;;19.50;50.30;;;;;;5094831;28;20085;-75
2022/03/29 04:56:00;;;;;;;5.38;4.07;;;19.60;50.20;;;;;;5085810;28;20048;-76
2022/03/29 04:58:26;;;;;;;4.47;3.97;;;19.50;50.10;;;;;;5085861;28;20032;-76
2022/03/29 05:00:52;;;;;;;5.63;4.20;;;19.60;50.20;;;;;;5082480;28;20040;-75
2022/03/29 05:03:18;;;;;;;6.18;4.20;;;19.50;50.20;;;;;;5086078;28;20051;-76
2022/03/29 05:05:44;;;;;;;4.13;3.53;;;19.60;50.20;;;;;;5081117;28;20059;-75
2022/03/29 05:08:09;;;;;;;4.72;4.07;;;19.50;50.10;;;;;;5084886;28;20040;-75
2022/03/29 05:10:35;;;;;;;4.95;4.10;;;19.60;50.20;;;;;;5086319;28;20411;-76
2022/03/29 05:13:00;;;;;;;6.85;3.90;;;19.50;50.20;;;;;;5084872;28;20456;-76
2022/03/29 05:15:26;;;;;;;5.10;3.90;;;19.60;50.20;;;;;;5083854;28;20114;-76
2022/03/29 05:17:52;;;;;;;5.57;4.18;;;19.60;50.20;;;;;;5084168;28;20048;-76
2022/03/29 05:20:18;;;;;;;5.20;4.00;;;19.60;50.20;;;;;;5084911;28;20044;-75
2022/03/29 05:22:55;;;;;;;3.90;3.50;;;19.60;50.20;;;;;;5085537;28;20039;-75
2022/03/29 05:25:22;;;;;;;6.90;4.28;;;19.60;50.20;;;;;;5082688;28;20049;-76
2022/03/29 05:27:49;;;;;;;5.35;3.60;;;19.60;50.20;;;;;;5085542;28;20081;-76
2022/03/29 05:30:15;;;;;;;6.03;4.15;;;19.60;50.10;;;;;;5084878;28;20044;-76
2022/03/29 05:32:41;;;;;;;5.80;4.40;;;19.50;50.80;;;;;;5085971;28;20040;-75
2022/03/29 05:35:08;;;;;;;5.57;4.18;;;19.60;50.10;;;;;;5084491;28;20514;-75
2022/03/29 05:37:38;;;;;;;6.63;4.00;;;19.60;50.10;;;;;;5102162;28;20126;-76
2022/03/29 05:40:06;;;;;;;5.32;4.00;;;19.60;50.10;;;;;;5085882;28;20075;-76
2022/03/29 05:42:37;;;;;;;5.18;3.72;;;19.60;50.10;;;;;;5084715;28;20127;-75
2022/03/29 05:45:02;;;;;;;6.68;3.80;;;19.60;50.10;;;;;;5087352;28;20036;-75
2022/03/29 05:50:12;;;;;;;5.05;3.97;;;19.60;50.10;;;;;;5083966;28;20095;-76
2022/03/29 05:52:38;;;;;;;5.90;4.20;;;19.60;50.10;;;;;;5081542;28;20430;-76
2022/03/29 05:55:04;;;;;;;5.30;4.05;;;19.60;50.10;;;;;;5102344;28;20087;-76
2022/03/29 05:57:30;;;;;;;4.68;3.83;;;19.50;50.00;;;;;;5101908;28;20280;-76
2022/03/29 05:59:56;;;;;;;5.32;4.03;;;19.60;50.10;;;;;;5084297;28;20043;-76
2022/03/29 06:02:24;;;;;;;4.50;4.03;;;19.60;50.10;;;;;;5093892;28;20117;-76
2022/03/29 06:04:50;;;;;;;4.85;3.95;;;19.50;50.00;;;;;;5098378;28;20048;-76
2022/03/29 06:07:16;;;;;;;5.47;3.90;;;19.60;50.10;;;;;;5086015;28;20041;-75
2022/03/29 06:09:41;;;;;;;4.63;4.00;;;19.60;50.10;;;;;;5099655;28;20395;-76
2022/03/29 06:12:07;;;;;;;5.63;4.10;;;19.50;50.00;;;;;;5083531;28;20044;-76
2022/03/29 06:14:33;;;;;;;5.63;4.00;;;19.60;50.10;;;;;;5067320;28;20040;-76
2022/03/29 06:17:00;;;;;;;4.95;3.92;;;19.60;50.10;;;;;;5084659;28;20470;-76
2022/03/29 06:19:26;;;;;;;5.18;3.88;;;19.60;50.10;;;;;;5081574;28;20475;-76
2022/03/29 06:21:51;;;;;;;5.07;4.15;;;19.60;50.00;;;;;;5082284;28;20669;-76
2022/03/29 06:24:17;;;;;;;7.00;4.00;;;19.60;50.10;;;;;;5082877;28;20040;-75
2022/03/29 06:26:43;;;;;;;4.63;4.10;;;19.60;50.00;;;;;;5095033;28;20074;-76
2022/03/29 06:29:10;;;;;;;5.05;3.72;;;19.50;50.00;;;;;;5115244;27;20093;-76
2022/03/29 06:31:36;;;;;;;4.43;3.88;;;19.50;50.00;;;;;;5083399;28;20550;-75
2022/03/29 06:34:03;;;;;;;6.25;3.80;;;19.50;50.00;;;;;;5084176;28;20047;-75
2022/03/29 06:36:28;;;;;;;5.03;4.05;;;19.60;50.00;;;;;;5068119;28;20377;-76
2022/03/29 06:38:54;;;;;;;5.68;4.10;;;19.60;50.00;;;;;;5083658;28;20044;-75
2022/03/29 06:41:20;;;;;;;7.53;3.97;;;19.60;50.10;;;;;;5084503;28;20148;-74
2022/03/29 06:43:47;;;;;;;5.43;3.67;;;19.50;50.00;;;;;;5082840;28;20032;-73
2022/03/29 06:46:12;;;;;;;8.68;4.60;;;19.60;50.20;;;;;;5085441;28;20097;-76
2022/03/29 06:48:44;;;;;;;6.55;4.40;;;19.50;50.20;;;;;;5083253;28;20044;-76
2022/03/29 06:51:12;;;;;;;6.20;4.50;;;19.50;50.10;;;;;;5081827;28;20119;-76
2022/03/29 06:53:38;;;;;;;5.32;4.57;;;19.50;50.10;;;;;;5082786;28;20036;-73
2022/03/29 06:56:07;;;;;;;12.27;4.70;;;19.50;50.10;;;;;;5085751;28;20127;-72
2022/03/29 06:58:34;;;;;;;7.85;4.63;;;19.50;50.20;;;;;;5083234;28;20059;-70
2022/03/29 07:01:01;;;;;;;13.15;4.60;;;19.50;50.20;;;;;;5089102;28;20075;-71
2022/03/29 07:03:28;;;;;;;7.88;4.50;;;19.50;50.30;;;;;;5085798;28;20044;-70
2022/03/29 07:05:53;;;;;;;7.22;4.65;;;19.50;51.10;;;;;;5083447;28;20079;-70
2022/03/29 07:08:20;;;;;;;6.20;4.18;;;19.50;50.40;;;;;;5103101;28;20044;-71
2022/03/29 07:13:31;;;;;;;7.50;4.40;;;19.60;51.50;;;;;;5085872;28;20044;-70
2022/03/29 07:15:57;;;;;;;13.32;4.53;;;19.60;50.80;;;;;;5085074;28;20770;-70
2022/03/29 07:18:22;;;;;;;9.90;5.10;;;19.60;50.90;;;;;;5084543;28;20180;-71
2022/03/29 07:20:48;;;;;;;8.25;4.60;;;19.60;51.00;;;;;;5085194;28;20062;-73
2022/03/29 07:23:13;;;;;;;7.30;5.13;;;19.70;51.10;;;;;;5082809;28;20578;-71
2022/03/29 07:25:39;;;;;;;11.27;5.07;;;19.70;51.20;;;;;;5084556;28;20595;-71
2022/03/29 07:28:11;;;;;;;12.20;4.80;;;19.70;51.30;;;;;;5084243;28;20434;-71
2022/03/29 07:30:43;;;;;;;10.07;4.88;;;19.70;51.40;;;;;;5081382;28;20048;-71
2022/03/29 07:33:11;;;;;;;11.50;5.45;;;19.70;51.30;;;;;;5100791;28;20044;-73
2022/03/29 07:35:37;;;;;;;6.55;5.03;;;19.70;51.40;;;;;;5084041;28;20051;-74
2022/03/29 07:38:04;;;;;;;9.15;5.40;;;19.70;51.40;;;;;;5083015;28;20037;-70
2022/03/29 07:40:31;;;;;;;6.85;4.90;;;19.80;51.40;;;;;;5117405;27;20074;-71
2022/03/29 07:42:58;;;;;;;7.68;5.13;;;19.80;51.40;;;;;;5067021;28;20527;-71
2022/03/29 07:45:24;;;;;;;8.90;4.80;;;19.80;51.30;;;;;;5084128;28;20044;-72
2022/03/29 07:47:52;;;;;;;9.52;5.15;;;19.80;51.30;;;;;;5084216;28;20535;-71
2022/03/29 07:50:18;;;;;;;6.38;5.20;;;19.80;51.30;;;;;;5084659;28;20044;-72
2022/03/29 07:52:44;;;;;;;7.65;5.25;;;19.80;51.30;;;;;;5117316;27;20503;-72
2022/03/29 07:55:11;;;;;;;9.32;5.30;;;19.80;51.20;;;;;;5117912;27;20043;-72
2022/03/29 07:57:37;;;;;;;13.57;5.28;;;19.90;51.20;;;;;;5084546;28;20568;-71
2022/03/29 08:02:52;;;;;;;7.70;5.40;;;19.80;51.10;;;;;;5082763;28;20055;-70
2022/03/29 08:05:19;;;;;;;5.82;4.85;;;19.90;51.10;;;;;;5083478;28;20048;-70
2022/03/29 08:07:45;;;;;;;10.68;5.30;;;19.90;51.10;;;;;;5085559;28;20044;-72
2022/03/29 08:10:13;;;;;;;10.82;5.00;;;19.90;50.90;;;;;;5086434;28;20073;-71
2022/03/29 08:12:39;;;;;;;11.75;6.00;;;19.90;50.90;;;;;;5085150;28;20044;-72
2022/03/29 08:15:06;;;;;;;11.80;6.10;;;19.90;50.90;;;;;;5065959;28;20047;-71
2022/03/29 08:17:33;;;;;;;10.90;6.15;;;19.90;50.90;;;;;;5083715;28;20143;-72
2022/03/29 08:19:59;;;;;;;12.43;5.80;;;19.90;51.00;;;;;;5083979;28;20040;-72
2022/03/29 08:22:25;;;;;;;12.82;4.95;;;19.90;51.00;;;;;;5081480;28;20037;-74
2022/03/29 08:24:51;;;;;;;12.75;5.53;;;20.00;51.10;;;;;;5117590;28;20086;-75
2022/03/29 08:27:16;;;;;;;9.80;6.18;;;19.90;51.00;;;;;;5082725;28;20079;-73
2022/03/29 08:29:43;;;;;;;12.63;5.95;;;20.00;51.00;;;;;;5084948;28;20491;-71
2022/03/29 08:32:08;;;;;;;10.52;5.90;;;20.00;51.10;;;;;;5082412;28;20048;-71
2022/03/29 08:34:35;;;;;;;12.35;6.28;;;20.00;51.10;;;;;;5084309;28;20040;-73
2022/03/29 08:37:01;;;;;;;11.93;6.20;;;20.00;51.10;;;;;;5083613;28;20051;-72
2022/03/29 08:39:26;;;;;;;10.95;5.60;;;20.10;51.10;;;;;;5084193;28;20036;-71
2022/03/29 08:42:12;;;;;;;10.98;6.13;;;20.10;51.20;;;;;;5115818;28;20101;-71
2022/03/29 08:44:41;;;;;;;8.82;5.93;;;20.10;51.10;;;;;;5080130;28;20610;-70
2022/03/29 08:47:11;;;;;;;13.32;6.50;;;20.20;51.10;;;;;;5082302;28;20127;-69
2022/03/29 08:49:37;;;;;;;10.65;6.20;;;20.20;51.20;;;;;;5099324;28;20097;-71
2022/03/29 08:52:07;;;;;;;11.00;5.53;;;20.20;51.00;;;;;;5084293;28;20048;-72
2022/03/29 08:54:33;;;;;;;11.95;5.53;;;20.20;50.90;;;;;;5081241;28;20040;-72
2022/03/29 08:56:59;;;;;;;13.90;6.07;;;20.20;50.80;;;;;;5084960;28;20047;-72
2022/03/29 08:59:27;;;;;;;10.45;6.20;;;20.20;50.70;;;;;;5083094;28;20563;-72
2022/03/29 09:01:55;;;;;;;10.52;5.47;;;20.20;50.60;;;;;;5084238;28;20032;-71
2022/03/29 09:04:22;;;;;;;10.48;5.75;;;20.20;50.50;;;;;;5082768;28;20107;-73
2022/03/29 09:06:50;;;;;;;10.52;5.88;;;20.20;50.50;;;;;;5079785;28;20377;-73
2022/03/29 09:09:34;;;;;;;;;;;20.20;50.50;;;;;;5086340;28;20102;-72
2022/03/29 09:12:19;;;;;;;10.27;5.50;;;20.20;50.30;;;;;;5080659;28;19974;-72
2022/03/29 09:14:59;;;;;;;13.77;6.15;;;20.20;50.40;;;;;;5089429;28;20561;-72
2022/03/29 09:17:38;;;;;;;10.27;6.13;;;20.20;50.30;;;;;;5109295;28;20388;-72
2022/03/29 09:20:07;;;;;;;10.52;5.55;;;20.20;50.20;;;;;;5087945;28;20048;-71
2022/03/29 09:22:37;;;;;;;9.57;5.80;;;20.20;50.10;;;;;;5069376;28;20035;-72
2022/03/29 09:25:04;;;;;;;13.85;6.15;;;20.30;50.20;;;;;;5086686;28;20039;-72
2022/03/29 09:27:30;;;;;;;13.15;6.35;;;20.20;50.00;;;;;;5108764;27;20139;-72
2022/03/29 09:30:09;;;;;;;9.85;6.47;;;20.30;49.90;;;;;;5088239;28;20132;-71
2022/03/29 09:32:52;;;;;;;11.80;6.25;;;20.20;49.60;;;;;;5089073;28;20032;-76
2022/03/29 09:35:18;;;;;;;9.18;6.68;;;20.30;49.60;;;;;;5089383;28;20157;-75
2022/03/29 09:37:45;;;;;;;10.93;6.15;;;20.30;49.60;;;;;;5087349;28;20499;-76
2022/03/29 09:40:12;;;;;;;15.95;6.38;;;20.30;49.60;;;;;;5088066;28;20024;-74
2022/03/29 09:42:41;;;;;;;12.60;6.32;;;20.30;49.50;;;;;;5087579;28;20052;-73
2022/03/29 09:45:08;;;;;;;10.50;6.13;;;20.30;49.50;;;;;;5071079;28;20050;-73
2022/03/29 09:47:34;;;;;;;12.35;5.75;;;20.30;49.40;;;;;;5085019;28;20048;-74
2022/03/29 09:50:06;;;;;;;11.88;7.10;;;20.30;49.40;;;;;;5076521;28;20542;-74
2022/03/29 09:52:37;;;;;;;16.48;6.95;;;20.30;49.50;;;;;;5087677;28;20063;-77
2022/03/29 09:55:10;;;;;;;15.85;6.95;;;20.40;49.90;;;;;;5083913;28;20047;-81
2022/03/29 09:57:55;;;;;;;12.25;6.93;;;20.40;50.20;;;;;;5101352;28;20181;-76
2022/03/29 10:00:30;;;;;;;17.25;7.28;;;20.40;50.40;;;;;;5119561;27;20043;-77
2022/03/29 10:02:57;;;;;;;13.48;7.72;;;20.50;50.80;;;;;;5085029;28;20050;-79
2022/03/29 10:05:24;;;;;;;15.68;7.60;;;20.50;50.80;;;;;;5120884;27;20044;-78
2022/03/29 10:10:50;;;;;;;13.45;7.97;;;20.50;51.20;;;;;;5085977;28;20048;-74
2022/03/29 10:13:23;;;;;;;15.93;7.90;;;20.60;51.20;;;;;;5086534;28;20047;-79
2022/03/29 10:15:54;;;;;;;16.33;8.05;;;20.60;51.30;;;;;;5081224;28;20589;-76
2022/03/29 10:18:26;;;;;;;14.38;8.00;;;20.70;51.50;;;;;;5086733;28;20482;-80
2022/03/29 10:20:54;;;;;;;13.38;7.97;;;20.70;51.50;;;;;;5085522;28;20087;-77
2022/03/29 10:23:23;;;;;;;18.40;8.38;;;20.80;51.60;;;;;;5085202;28;20532;-73
2022/03/29 10:25:51;;;;;;;17.20;8.52;;;20.80;51.70;;;;;;5085600;28;20503;-72
2022/03/29 10:28:17;;;;;;;16.87;8.57;;;20.80;51.70;;;;;;5083776;28;20106;-73
2022/03/29 10:30:43;;;;;;;14.20;8.35;;;20.80;51.80;;;;;;5087278;28;20769;-74
2022/03/29 10:33:30;;;;;;;15.43;8.30;;;20.90;51.90;;;;;;5116565;27;20143;-76
2022/03/29 10:36:08;;;;;;;13.50;8.35;;;20.90;51.90;;;;;;5076042;28;20052;-76
2022/03/29 10:38:43;;;;;;;15.98;8.65;;;20.90;51.90;;;;;;5078510;28;20060;-73
2022/03/29 10:41:27;;;;;;;14.80;8.65;;;20.90;52.10;;;;;;5085413;28;20056;-74
2022/03/29 10:44:11;;;;;;;16.83;8.98;;;21.00;52.20;;;;;;5085668;28;20784;-77
2022/03/29 10:46:55;;;;;;;12.02;8.57;;;21.00;52.20;;;;;;5114454;27;20094;-75
2022/03/29 10:49:24;;;;;;;15.05;8.77;;;21.10;52.20;;;;;;5084676;28;20537;-73
2022/03/29 10:51:59;;;;;;;16.98;8.00;;;21.10;52.30;;;;;;5072213;28;20073;-77
2022/03/29 10:54:34;;;;;;;13.38;7.75;;;21.10;52.00;;;;;;5070228;28;20040;-75
2022/03/29 10:57:06;;;;;;;15.45;7.57;;;21.20;51.70;;;;;;5075671;28;20036;-75
2022/03/29 10:59:36;;;;;;;20.65;7.88;;;21.20;51.40;;;;;;5087333;28;20719;-78
2022/03/29 11:02:20;;;;;;;13.75;7.95;;;21.20;51.10;;;;;;5085883;28;20495;-76
2022/03/29 11:05:08;;;;;;;15.57;7.80;;;21.30;50.90;;;;;;5085069;28;20056;-80
2022/03/29 11:07:52;;;;;;;11.38;6.93;;;21.20;50.60;;;;;;5098874;28;20109;-77
2022/03/29 11:10:23;;;;;;;13.35;6.97;;;21.20;50.60;;;;;;5114780;27;20075;-75
2022/03/29 11:12:54;;;;;;;12.73;7.22;;;21.20;50.70;;;;;;5064164;28;20081;-74
2022/03/29 11:15:27;;;;;;;15.35;7.43;;;21.30;50.80;;;;;;5116338;27;20408;-72
2022/03/29 11:17:56;;;;;;;17.70;6.82;;;21.30;50.80;;;;;;5084124;28;20075;-75
2022/03/29 11:20:38;;;;;;;15.10;7.38;;;21.30;50.90;;;;;;5078373;28;20040;-74
2022/03/29 11:23:09;;;;;;;15.35;6.90;;;21.30;50.90;;;;;;5082813;28;20082;-75
2022/03/29 11:25:41;;;;;;;12.15;7.32;;;21.30;50.80;;;;;;5095229;27;20043;-76
2022/03/29 11:28:13;;;;;;;16.20;7.35;;;21.40;50.80;;;;;;5077769;28;20044;-74
2022/03/29 11:30:40;;;;;;;11.07;6.88;;;21.40;50.70;;;;;;5079207;28;20043;-75
2022/03/29 11:33:07;;;;;;;14.85;7.28;;;21.50;50.50;;;;;;5081191;28;20078;-75
2022/03/29 11:35:34;;;;;;;12.73;7.13;;;21.50;51.20;;;;;;5078442;28;20032;-75
2022/03/29 11:38:13;;;;;;;11.20;6.63;;;21.50;50.30;;;;;;5078389;28;20032;-72
2022/03/29 11:40:40;;;;;;;13.23;7.20;;;21.50;50.10;;;;;;5085283;28;20093;-75
2022/03/29 11:43:11;;;;;;;14.35;7.15;;;21.50;50.10;;;;;;5082936;28;20043;-70
2022/03/29 11:45:47;;;;;;;10.95;6.97;;;21.50;49.90;;;;;;5083527;28;20070;-75
2022/03/29 11:48:14;;;;;;;11.98;6.63;;;21.50;49.30;;;;;;5083935;28;20036;-71
2022/03/29 11:50:45;;;;;;;12.00;7.07;;;21.40;49.50;;;;;;5081247;28;20115;-75
2022/03/29 11:53:23;;;;;;;12.23;6.65;;;21.50;49.20;;;;;;5076462;28;20028;-74
2022/03/29 11:55:58;;;;;;;13.20;7.15;;;21.50;49.00;;;;;;5073754;28;20040;-73
2022/03/29 11:58:24;;;;;;;17.60;6.80;;;21.50;49.00;;;;;;5111972;27;20102;-74
2022/03/29 12:00:50;;;;;;;13.02;6.85;;;21.50;48.80;;;;;;5115788;27;20068;-74
2022/03/29 12:03:39;;;;;;;12.02;7.10;;;21.60;48.70;;;;;;5085095;28;20039;-73
2022/03/29 12:06:08;;;;;;;13.20;7.13;;;21.70;48.50;;;;;;5084493;28;20052;-71
2022/03/29 12:08:50;;;;;;;12.00;7.10;;;21.60;48.50;;;;;;5084771;28;20048;-73
2022/03/29 12:11:31;;;;;;;14.45;7.13;;;21.60;48.20;;;;;;5084776;28;20052;-73
2022/03/29 12:14:06;;;;;;;13.52;7.20;;;21.70;48.20;;;;;;5085555;28;20048;-70
2022/03/29 12:16:34;;;;;;;14.63;7.22;;;21.70;48.20;;;;;;5084324;28;20577;-69
2022/03/29 12:19:00;;;;;;;11.40;7.30;;;21.80;48.10;;;;;;5084384;28;20088;-69
2022/03/29 12:21:25;;;;;;;11.18;7.43;;;21.80;47.90;;;;;;5117128;28;20044;-69
2022/03/29 12:24:03;;;;;;;12.98;7.25;;;21.90;47.80;;;;;;5066157;28;20120;-70
2022/03/29 12:26:29;;;;;;;16.90;7.47;;;22.00;47.60;;;;;;5096919;28;20048;-69
2022/03/29 12:28:56;;;;;;;13.15;7.22;;;22.10;47.50;;;;;;5064726;28;20028;-70
2022/03/29 12:31:24;;;;;;;12.55;7.32;;;22.10;47.30;;;;;;5084536;28;20618;-73
2022/03/29 12:33:51;;;;;;;11.82;7.00;;;22.20;47.30;;;;;;5118876;28;20044;-72
2022/03/29 12:36:16;;;;;;;16.10;7.75;;;22.40;47.30;;;;;;5119257;28;20044;-73
2022/03/29 12:38:54;;;;;;;14.93;7.50;;;22.60;46.90;;;;;;5083501;28;20510;-72
2022/03/29 12:41:48;;;;;;;13.43;7.30;;;23.10;46.10;;;;;;5084397;28;20044;-71
2022/03/29 12:44:26;;;;;;;13.38;7.15;;;23.70;45.00;;;;;;5067849;28;20117;-73
2022/03/29 12:46:52;;;;;;;15.13;6.57;;;24.20;44.10;;;;;;5082970;28;20056;-71
2022/03/29 12:49:18;;;;;;;11.52;6.57;;;24.50;43.40;;;;;;5088533;28;20289;-71
2022/03/29 12:51:51;;;;;;;13.80;7.07;;;24.50;42.90;;;;;;5086668;28;20036;-73
2022/03/29 12:54:17;;;;;;;11.70;6.35;;;24.50;42.70;;;;;;5088374;28;20055;-72
2022/03/29 12:56:47;;;;;;;10.73;6.03;;;24.70;42.40;;;;;;5089021;28;20413;-72
2022/03/29 12:59:37;;;;;;;12.35;6.70;;;24.90;41.90;;;;;;5088631;28;20086;-71
2022/03/29 13:02:19;;;;;;;14.73;6.82;;;25.10;41.70;;;;;;5069048;28;20041;-73